sensor_id;sensor_type;location;lat;lon;timestamp;temperature;humidity
21244;DHT22;10780;50.942;4.028;2022-07-23T00:01:17;17.40;99.90
21244;DHT22;10780;50.942;4.028;2022-07-23T00:03:42;17.40;99.90
21244;DHT22;10780;50.942;4.028;2022-07-23T00:06:08;17.40;99.90
21244;DHT22;10780;50.942;4.028;2022-07-23T00:08:34;17.30;99.90
21244;DHT22;10780;50.942;4.028;2022-07-23T00:10:59;17.10;99.90
21244;DHT22;10780;50.942;4.028;2022-07-23T00:13:26;17.10;99.90
21244;DHT22;10780;50.942;4.028;2022-07-23T00:15:52;17.10;99.90
21244;DHT22;10780;50.942;4.028;2022-07-23T00:18:18;17.10;99.90
21244;DHT22;10780;50.942;4.028;2022-07-23T00:20:43;17.00;99.90
21244;DHT22;10780;50.942;4.028;2022-07-23T00:23:09;17.00;99.90
21244;DHT22;10780;50.942;4.028;2022-07-23T00:25:35;16.80;99.90
21244;DHT22;10780;50.942;4.028;2022-07-23T00:28:03;16.80;99.90
21244;DHT22;10780;50.942;4.028;2022-07-23T00:30:30;16.80;99.90
21244;DHT22;10780;50.942;4.028;2022-07-23T00:33:04;16.80;99.90
21244;DHT22;10780;50.942;4.028;2022-07-23T00:35:32;16.80;99.90
21244;DHT22;10780;50.942;4.028;2022-07-23T00:37:59;16.60;99.90
21244;DHT22;10780;50.942;4.028;2022-07-23T00:40:26;16.50;99.90
21244;DHT22;10780;50.942;4.028;2022-07-23T00:42:52;16.40;99.90
21244;DHT22;10780;50.942;4.028;2022-07-23T00:45:18;16.40;99.90
21244;DHT22;10780;50.942;4.028;2022-07-23T00:47:44;16.40;99.90
21244;DHT22;10780;50.942;4.028;2022-07-23T00:50:10;16.50;99.90
21244;DHT22;10780;50.942;4.028;2022-07-23T00:52:37;16.50;99.90
21244;DHT22;10780;50.942;4.028;2022-07-23T00:55:07;16.60;99.90
21244;DHT22;10780;50.942;4.028;2022-07-23T00:57:34;16.80;99.90
21244;DHT22;10780;50.942;4.028;2022-07-23T01:00:00;16.80;99.90
21244;DHT22;10780;50.942;4.028;2022-07-23T01:02:26;16.90;99.90
21244;DHT22;10780;50.942;4.028;2022-07-23T01:04:52;16.80;99.90
21244;DHT22;10780;50.942;4.028;2022-07-23T01:07:18;16.90;99.90
21244;DHT22;10780;50.942;4.028;2022-07-23T01:09:44;16.90;99.90
21244;DHT22;10780;50.942;4.028;2022-07-23T01:12:10;17.00;99.90
21244;DHT22;10780;50.942;4.028;2022-07-23T01:14:36;17.00;99.90
21244;DHT22;10780;50.942;4.028;2022-07-23T01:17:02;17.00;99.90
21244;DHT22;10780;50.942;4.028;2022-07-23T01:19:28;16.80;99.90
21244;DHT22;10780;50.942;4.028;2022-07-23T01:21:54;16.70;99.90
21244;DHT22;10780;50.942;4.028;2022-07-23T01:24:22;16.60;99.90
21244;DHT22;10780;50.942;4.028;2022-07-23T01:26:48;16.50;99.90
21244;DHT22;10780;50.942;4.028;2022-07-23T01:29:14;16.40;99.90
21244;DHT22;10780;50.942;4.028;2022-07-23T01:31:40;16.50;99.90
21244;DHT22;10780;50.942;4.028;2022-07-23T01:34:06;16.60;99.90
21244;DHT22;10780;50.942;4.028;2022-07-23T01:36:33;16.70;99.90
21244;DHT22;10780;50.942;4.028;2022-07-23T01:38:59;16.70;99.90
21244;DHT22;10780;50.942;4.028;2022-07-23T01:41:24;16.70;99.90
21244;DHT22;10780;50.942;4.028;2022-07-23T01:43:50;16.70;99.90
21244;DHT22;10780;50.942;4.028;2022-07-23T01:46:16;16.70;99.90
21244;DHT22;10780;50.942;4.028;2022-07-23T01:48:41;16.80;99.90
21244;DHT22;10780;50.942;4.028;2022-07-23T01:51:07;16.80;99.90
21244;DHT22;10780;50.942;4.028;2022-07-23T01:53:33;16.80;99.90
21244;DHT22;10780;50.942;4.028;2022-07-23T01:55:59;16.90;99.90
21244;DHT22;10780;50.942;4.028;2022-07-23T01:58:26;16.90;99.90
21244;DHT22;10780;50.942;4.028;2022-07-23T02:00:52;16.90;99.90
21244;DHT22;10780;50.942;4.028;2022-07-23T02:03:18;16.80;99.90
21244;DHT22;10780;50.942;4.028;2022-07-23T02:05:43;16.70;99.90
21244;DHT22;10780;50.942;4.028;2022-07-23T02:08:09;16.60;99.90
21244;DHT22;10780;50.942;4.028;2022-07-23T02:10:35;16.50;99.90
21244;DHT22;10780;50.942;4.028;2022-07-23T02:13:00;16.30;99.90
21244;DHT22;10780;50.942;4.028;2022-07-23T02:15:26;16.20;99.90
21244;DHT22;10780;50.942;4.028;2022-07-23T02:17:52;16.20;99.90
21244;DHT22;10780;50.942;4.028;2022-07-23T02:20:17;16.20;99.90
21244;DHT22;10780;50.942;4.028;2022-07-23T02:22:43;16.20;99.90
21244;DHT22;10780;50.942;4.028;2022-07-23T02:25:09;16.20;99.90
21244;DHT22;10780;50.942;4.028;2022-07-23T02:27:36;16.30;99.90
21244;DHT22;10780;50.942;4.028;2022-07-23T02:30:03;16.30;99.90
21244;DHT22;10780;50.942;4.028;2022-07-23T02:32:29;16.20;99.90
21244;DHT22;10780;50.942;4.028;2022-07-23T02:34:54;16.20;99.90
21244;DHT22;10780;50.942;4.028;2022-07-23T02:37:20;16.30;99.90
21244;DHT22;10780;50.942;4.028;2022-07-23T02:39:46;16.20;99.90
21244;DHT22;10780;50.942;4.028;2022-07-23T02:42:13;16.20;99.90
21244;DHT22;10780;50.942;4.028;2022-07-23T02:44:39;16.20;99.90
21244;DHT22;10780;50.942;4.028;2022-07-23T02:47:05;16.10;99.90
21244;DHT22;10780;50.942;4.028;2022-07-23T02:49:31;16.10;99.90
21244;DHT22;10780;50.942;4.028;2022-07-23T02:51:56;16.20;99.90
21244;DHT22;10780;50.942;4.028;2022-07-23T02:54:22;16.30;99.90
21244;DHT22;10780;50.942;4.028;2022-07-23T02:56:47;16.30;99.90
21244;DHT22;10780;50.942;4.028;2022-07-23T02:59:13;16.20;99.90
21244;DHT22;10780;50.942;4.028;2022-07-23T03:01:39;16.30;99.90
21244;DHT22;10780;50.942;4.028;2022-07-23T03:04:04;16.30;99.90
21244;DHT22;10780;50.942;4.028;2022-07-23T03:06:30;16.30;99.90
21244;DHT22;10780;50.942;4.028;2022-07-23T03:08:55;16.30;99.90
21244;DHT22;10780;50.942;4.028;2022-07-23T03:11:21;16.10;99.90
21244;DHT22;10780;50.942;4.028;2022-07-23T03:13:47;15.90;99.90
21244;DHT22;10780;50.942;4.028;2022-07-23T03:16:12;15.90;99.90
21244;DHT22;10780;50.942;4.028;2022-07-23T03:18:38;15.90;99.90
21244;DHT22;10780;50.942;4.028;2022-07-23T03:21:03;15.90;99.90
21244;DHT22;10780;50.942;4.028;2022-07-23T03:23:29;16.10;99.90
21244;DHT22;10780;50.942;4.028;2022-07-23T03:25:55;16.10;99.90
21244;DHT22;10780;50.942;4.028;2022-07-23T03:28:20;16.00;99.90
21244;DHT22;10780;50.942;4.028;2022-07-23T03:30:47;15.90;99.90
21244;DHT22;10780;50.942;4.028;2022-07-23T03:33:14;15.90;99.90
21244;DHT22;10780;50.942;4.028;2022-07-23T03:35:40;15.90;99.90
21244;DHT22;10780;50.942;4.028;2022-07-23T03:38:05;15.90;99.90
21244;DHT22;10780;50.942;4.028;2022-07-23T03:40:31;15.90;99.90
21244;DHT22;10780;50.942;4.028;2022-07-23T03:42:57;15.90;99.90
21244;DHT22;10780;50.942;4.028;2022-07-23T03:45:22;16.00;99.90
21244;DHT22;10780;50.942;4.028;2022-07-23T03:47:48;16.00;99.90
21244;DHT22;10780;50.942;4.028;2022-07-23T03:50:14;16.10;99.90
21244;DHT22;10780;50.942;4.028;2022-07-23T03:52:40;16.10;99.90
21244;DHT22;10780;50.942;4.028;2022-07-23T03:55:06;15.90;99.90
21244;DHT22;10780;50.942;4.028;2022-07-23T03:57:32;15.70;99.90
21244;DHT22;10780;50.942;4.028;2022-07-23T03:59:57;15.80;99.90
21244;DHT22;10780;50.942;4.028;2022-07-23T04:02:23;15.80;99.90
21244;DHT22;10780;50.942;4.028;2022-07-23T04:04:48;15.80;99.90
21244;DHT22;10780;50.942;4.028;2022-07-23T04:07:14;15.80;99.90
21244;DHT22;10780;50.942;4.028;2022-07-23T04:09:40;15.70;99.90
21244;DHT22;10780;50.942;4.028;2022-07-23T04:12:06;15.60;99.90
21244;DHT22;10780;50.942;4.028;2022-07-23T04:14:33;15.80;99.90
21244;DHT22;10780;50.942;4.028;2022-07-23T04:16:59;15.80;99.90
21244;DHT22;10780;50.942;4.028;2022-07-23T04:19:24;15.90;99.90
21244;DHT22;10780;50.942;4.028;2022-07-23T04:21:50;16.00;99.90
21244;DHT22;10780;50.942;4.028;2022-07-23T04:24:16;16.00;99.90
21244;DHT22;10780;50.942;4.028;2022-07-23T04:26:41;16.20;99.90
21244;DHT22;10780;50.942;4.028;2022-07-23T04:29:07;16.20;99.90
21244;DHT22;10780;50.942;4.028;2022-07-23T04:31:32;16.40;99.90
21244;DHT22;10780;50.942;4.028;2022-07-23T04:33:58;16.50;99.90
21244;DHT22;10780;50.942;4.028;2022-07-23T04:36:24;16.50;99.90
21244;DHT22;10780;50.942;4.028;2022-07-23T04:38:49;16.50;99.90
21244;DHT22;10780;50.942;4.028;2022-07-23T04:41:15;16.60;99.90
21244;DHT22;10780;50.942;4.028;2022-07-23T04:43:40;16.60;99.90
21244;DHT22;10780;50.942;4.028;2022-07-23T04:46:06;16.70;99.90
21244;DHT22;10780;50.942;4.028;2022-07-23T04:48:32;16.70;99.90
21244;DHT22;10780;50.942;4.028;2022-07-23T04:50:57;16.80;99.90
21244;DHT22;10780;50.942;4.028;2022-07-23T04:53:23;17.00;99.90
21244;DHT22;10780;50.942;4.028;2022-07-23T04:55:48;17.10;99.90
21244;DHT22;10780;50.942;4.028;2022-07-23T04:58:14;17.30;99.90
21244;DHT22;10780;50.942;4.028;2022-07-23T05:00:40;17.40;99.90
21244;DHT22;10780;50.942;4.028;2022-07-23T05:03:05;17.40;99.90
21244;DHT22;10780;50.942;4.028;2022-07-23T05:05:31;17.40;99.90
21244;DHT22;10780;50.942;4.028;2022-07-23T05:07:57;17.30;99.90
21244;DHT22;10780;50.942;4.028;2022-07-23T05:10:22;17.40;99.90
21244;DHT22;10780;50.942;4.028;2022-07-23T05:12:48;17.30;99.90
21244;DHT22;10780;50.942;4.028;2022-07-23T05:15:13;17.20;99.90
21244;DHT22;10780;50.942;4.028;2022-07-23T05:17:39;17.10;99.90
21244;DHT22;10780;50.942;4.028;2022-07-23T05:20:05;17.10;99.90
21244;DHT22;10780;50.942;4.028;2022-07-23T05:22:31;17.10;99.90
21244;DHT22;10780;50.942;4.028;2022-07-23T05:24:56;17.00;99.90
21244;DHT22;10780;50.942;4.028;2022-07-23T05:27:22;16.90;99.90
21244;DHT22;10780;50.942;4.028;2022-07-23T05:29:47;17.10;99.90
21244;DHT22;10780;50.942;4.028;2022-07-23T05:32:13;17.10;99.90
21244;DHT22;10780;50.942;4.028;2022-07-23T05:34:39;17.20;99.90
21244;DHT22;10780;50.942;4.028;2022-07-23T05:37:05;17.40;99.90
21244;DHT22;10780;50.942;4.028;2022-07-23T05:39:31;17.30;99.90
21244;DHT22;10780;50.942;4.028;2022-07-23T05:41:57;17.50;99.90
21244;DHT22;10780;50.942;4.028;2022-07-23T05:44:23;17.60;99.90
21244;DHT22;10780;50.942;4.028;2022-07-23T05:46:48;17.70;99.90
21244;DHT22;10780;50.942;4.028;2022-07-23T05:49:14;17.80;99.90
21244;DHT22;10780;50.942;4.028;2022-07-23T05:51:40;17.80;99.90
21244;DHT22;10780;50.942;4.028;2022-07-23T05:54:05;17.70;99.90
21244;DHT22;10780;50.942;4.028;2022-07-23T05:56:31;18.00;99.90
21244;DHT22;10780;50.942;4.028;2022-07-23T05:58:56;18.30;99.90
21244;DHT22;10780;50.942;4.028;2022-07-23T06:01:22;18.40;99.90
21244;DHT22;10780;50.942;4.028;2022-07-23T06:03:48;18.30;99.90
21244;DHT22;10780;50.942;4.028;2022-07-23T06:06:13;18.40;99.90
21244;DHT22;10780;50.942;4.028;2022-07-23T06:08:39;18.40;99.90
21244;DHT22;10780;50.942;4.028;2022-07-23T06:11:05;18.10;99.90
21244;DHT22;10780;50.942;4.028;2022-07-23T06:13:30;18.10;99.90
21244;DHT22;10780;50.942;4.028;2022-07-23T06:15:56;18.20;99.90
21244;DHT22;10780;50.942;4.028;2022-07-23T06:18:22;18.10;99.90
21244;DHT22;10780;50.942;4.028;2022-07-23T06:20:47;17.90;99.90
21244;DHT22;10780;50.942;4.028;2022-07-23T06:23:13;17.80;99.90
21244;DHT22;10780;50.942;4.028;2022-07-23T06:25:38;18.10;99.90
21244;DHT22;10780;50.942;4.028;2022-07-23T06:28:04;18.10;99.90
21244;DHT22;10780;50.942;4.028;2022-07-23T06:30:30;18.50;99.90
21244;DHT22;10780;50.942;4.028;2022-07-23T06:32:56;18.80;99.90
21244;DHT22;10780;50.942;4.028;2022-07-23T06:35:21;19.20;99.90
21244;DHT22;10780;50.942;4.028;2022-07-23T06:37:47;19.30;99.90
21244;DHT22;10780;50.942;4.028;2022-07-23T06:40:13;19.30;99.90
21244;DHT22;10780;50.942;4.028;2022-07-23T06:42:38;19.30;99.90
21244;DHT22;10780;50.942;4.028;2022-07-23T06:45:07;19.40;99.90
21244;DHT22;10780;50.942;4.028;2022-07-23T06:47:33;19.50;99.90
21244;DHT22;10780;50.942;4.028;2022-07-23T06:49:59;19.50;99.90
21244;DHT22;10780;50.942;4.028;2022-07-23T06:52:24;19.50;99.90
21244;DHT22;10780;50.942;4.028;2022-07-23T06:54:51;19.60;99.90
21244;DHT22;10780;50.942;4.028;2022-07-23T06:57:17;19.60;99.90
21244;DHT22;10780;50.942;4.028;2022-07-23T06:59:42;19.70;99.90
21244;DHT22;10780;50.942;4.028;2022-07-23T07:02:08;19.90;99.90
21244;DHT22;10780;50.942;4.028;2022-07-23T07:04:34;20.20;99.90
21244;DHT22;10780;50.942;4.028;2022-07-23T07:07:00;20.40;99.90
21244;DHT22;10780;50.942;4.028;2022-07-23T07:09:25;20.40;99.90
21244;DHT22;10780;50.942;4.028;2022-07-23T07:11:51;20.70;99.90
21244;DHT22;10780;50.942;4.028;2022-07-23T07:14:17;20.80;99.90
21244;DHT22;10780;50.942;4.028;2022-07-23T07:16:43;20.90;99.90
21244;DHT22;10780;50.942;4.028;2022-07-23T07:19:08;21.10;99.90
21244;DHT22;10780;50.942;4.028;2022-07-23T07:21:34;21.10;99.90
21244;DHT22;10780;50.942;4.028;2022-07-23T07:24:00;21.10;99.90
21244;DHT22;10780;50.942;4.028;2022-07-23T07:26:26;20.90;99.90
21244;DHT22;10780;50.942;4.028;2022-07-23T07:28:52;21.00;99.90
21244;DHT22;10780;50.942;4.028;2022-07-23T07:31:17;21.10;99.90
21244;DHT22;10780;50.942;4.028;2022-07-23T07:33:43;21.00;99.90
21244;DHT22;10780;50.942;4.028;2022-07-23T07:36:09;20.90;99.90
21244;DHT22;10780;50.942;4.028;2022-07-23T07:38:34;20.80;99.90
21244;DHT22;10780;50.942;4.028;2022-07-23T07:41:00;20.80;99.90
21244;DHT22;10780;50.942;4.028;2022-07-23T07:43:25;21.00;99.90
21244;DHT22;10780;50.942;4.028;2022-07-23T07:45:52;21.10;99.90
21244;DHT22;10780;50.942;4.028;2022-07-23T07:48:18;20.90;99.90
21244;DHT22;10780;50.942;4.028;2022-07-23T07:50:43;20.90;99.90
21244;DHT22;10780;50.942;4.028;2022-07-23T07:53:09;20.90;99.90
21244;DHT22;10780;50.942;4.028;2022-07-23T07:55:35;20.70;99.90
21244;DHT22;10780;50.942;4.028;2022-07-23T07:58:01;20.70;99.90
21244;DHT22;10780;50.942;4.028;2022-07-23T08:00:26;20.90;99.90
21244;DHT22;10780;50.942;4.028;2022-07-23T08:02:53;21.00;99.90
21244;DHT22;10780;50.942;4.028;2022-07-23T08:05:25;21.10;99.90
21244;DHT22;10780;50.942;4.028;2022-07-23T08:07:51;21.20;99.90
21244;DHT22;10780;50.942;4.028;2022-07-23T08:10:17;21.30;99.90
21244;DHT22;10780;50.942;4.028;2022-07-23T08:12:51;21.30;99.90
21244;DHT22;10780;50.942;4.028;2022-07-23T08:15:19;21.40;99.90
21244;DHT22;10780;50.942;4.028;2022-07-23T08:17:46;21.60;99.90
21244;DHT22;10780;50.942;4.028;2022-07-23T08:20:14;21.90;99.90
21244;DHT22;10780;50.942;4.028;2022-07-23T08:25:10;22.20;99.90
21244;DHT22;10780;50.942;4.028;2022-07-23T08:27:35;22.30;99.90
21244;DHT22;10780;50.942;4.028;2022-07-23T08:30:01;22.30;99.90
21244;DHT22;10780;50.942;4.028;2022-07-23T08:32:27;22.40;99.90
21244;DHT22;10780;50.942;4.028;2022-07-23T08:34:52;22.90;99.90
21244;DHT22;10780;50.942;4.028;2022-07-23T08:37:18;22.90;99.90
21244;DHT22;10780;50.942;4.028;2022-07-23T08:39:43;23.20;99.90
21244;DHT22;10780;50.942;4.028;2022-07-23T08:42:09;23.50;99.90
21244;DHT22;10780;50.942;4.028;2022-07-23T08:44:35;23.30;99.90
21244;DHT22;10780;50.942;4.028;2022-07-23T08:47:01;22.80;99.90
21244;DHT22;10780;50.942;4.028;2022-07-23T08:49:28;22.90;99.90
21244;DHT22;10780;50.942;4.028;2022-07-23T08:51:54;23.10;99.90
21244;DHT22;10780;50.942;4.028;2022-07-23T08:54:21;23.40;99.90
21244;DHT22;10780;50.942;4.028;2022-07-23T08:56:48;23.60;99.90
21244;DHT22;10780;50.942;4.028;2022-07-23T08:59:14;23.70;99.90
21244;DHT22;10780;50.942;4.028;2022-07-23T09:01:40;24.20;99.90
21244;DHT22;10780;50.942;4.028;2022-07-23T09:04:05;24.50;99.90
21244;DHT22;10780;50.942;4.028;2022-07-23T09:06:31;24.90;99.90
21244;DHT22;10780;50.942;4.028;2022-07-23T09:08:57;25.10;99.90
21244;DHT22;10780;50.942;4.028;2022-07-23T09:11:22;25.20;99.90
21244;DHT22;10780;50.942;4.028;2022-07-23T09:13:50;25.40;99.90
21244;DHT22;10780;50.942;4.028;2022-07-23T09:16:27;25.40;99.90
21244;DHT22;10780;50.942;4.028;2022-07-23T09:18:57;25.00;99.90
21244;DHT22;10780;50.942;4.028;2022-07-23T09:21:36;24.20;99.90
21244;DHT22;10780;50.942;4.028;2022-07-23T09:24:09;24.10;99.90
21244;DHT22;10780;50.942;4.028;2022-07-23T09:29:10;24.60;99.90
21244;DHT22;10780;50.942;4.028;2022-07-23T09:34:32;24.70;99.90
21244;DHT22;10780;50.942;4.028;2022-07-23T09:37:18;24.30;99.90
21244;DHT22;10780;50.942;4.028;2022-07-23T09:39:45;24.10;99.90
21244;DHT22;10780;50.942;4.028;2022-07-23T09:44:49;24.20;99.90
21244;DHT22;10780;50.942;4.028;2022-07-23T09:47:16;24.20;99.90
21244;DHT22;10780;50.942;4.028;2022-07-23T09:52:31;23.90;99.90
21244;DHT22;10780;50.942;4.028;2022-07-23T09:54:59;23.90;99.90
21244;DHT22;10780;50.942;4.028;2022-07-23T09:57:25;23.50;99.90
21244;DHT22;10780;50.942;4.028;2022-07-23T09:59:52;23.50;99.90
21244;DHT22;10780;50.942;4.028;2022-07-23T10:02:18;23.70;99.90
21244;DHT22;10780;50.942;4.028;2022-07-23T10:04:43;23.70;99.90
21244;DHT22;10780;50.942;4.028;2022-07-23T10:07:09;23.70;99.90
21244;DHT22;10780;50.942;4.028;2022-07-23T10:09:38;23.80;99.90
21244;DHT22;10780;50.942;4.028;2022-07-23T10:12:09;23.80;99.90
21244;DHT22;10780;50.942;4.028;2022-07-23T10:14:39;23.80;99.90
21244;DHT22;10780;50.942;4.028;2022-07-23T10:17:05;23.90;99.90
21244;DHT22;10780;50.942;4.028;2022-07-23T10:19:32;24.50;99.90
21244;DHT22;10780;50.942;4.028;2022-07-23T10:22:04;25.20;99.90
21244;DHT22;10780;50.942;4.028;2022-07-23T10:35:42;24.90;99.90
21244;DHT22;10780;50.942;4.028;2022-07-23T10:40:58;24.50;99.90
21244;DHT22;10780;50.942;4.028;2022-07-23T10:43:25;24.30;99.90
21244;DHT22;10780;50.942;4.028;2022-07-23T10:45:51;24.20;99.90
21244;DHT22;10780;50.942;4.028;2022-07-23T10:48:25;24.20;99.90
21244;DHT22;10780;50.942;4.028;2022-07-23T10:51:15;24.30;99.90
21244;DHT22;10780;50.942;4.028;2022-07-23T10:53:57;24.40;99.90
21244;DHT22;10780;50.942;4.028;2022-07-23T11:02:29;24.10;99.90
21244;DHT22;10780;50.942;4.028;2022-07-23T11:05:09;24.10;99.90
21244;DHT22;10780;50.942;4.028;2022-07-23T11:08:11;24.20;99.90
21244;DHT22;10780;50.942;4.028;2022-07-23T11:13:31;24.30;99.90
21244;DHT22;10780;50.942;4.028;2022-07-23T11:16:25;24.40;99.90
21244;DHT22;10780;50.942;4.028;2022-07-23T11:18:59;24.50;99.90
21244;DHT22;10780;50.942;4.028;2022-07-23T11:24:01;24.70;99.90
21244;DHT22;10780;50.942;4.028;2022-07-23T11:32:04;25.00;99.90
21244;DHT22;10780;50.942;4.028;2022-07-23T11:37:00;24.70;99.90
21244;DHT22;10780;50.942;4.028;2022-07-23T11:39:28;24.70;99.90
21244;DHT22;10780;50.942;4.028;2022-07-23T11:41:55;24.60;99.90
21244;DHT22;10780;50.942;4.028;2022-07-23T11:44:31;24.80;99.90
21244;DHT22;10780;50.942;4.028;2022-07-23T11:49:26;25.00;99.90
21244;DHT22;10780;50.942;4.028;2022-07-23T11:52:05;24.90;99.90
21244;DHT22;10780;50.942;4.028;2022-07-23T11:54:32;25.20;99.90
21244;DHT22;10780;50.942;4.028;2022-07-23T11:57:00;25.60;99.90
21244;DHT22;10780;50.942;4.028;2022-07-23T11:59:33;25.90;99.90
21244;DHT22;10780;50.942;4.028;2022-07-23T12:02:00;25.60;99.90
21244;DHT22;10780;50.942;4.028;2022-07-23T12:04:44;25.60;99.90
21244;DHT22;10780;50.942;4.028;2022-07-23T12:07:31;25.50;99.90
21244;DHT22;10780;50.942;4.028;2022-07-23T12:10:15;25.70;99.90
21244;DHT22;10780;50.942;4.028;2022-07-23T12:12:48;25.90;99.90
21244;DHT22;10780;50.942;4.028;2022-07-23T12:15:20;26.10;99.90
21244;DHT22;10780;50.942;4.028;2022-07-23T12:17:48;26.30;99.90
21244;DHT22;10780;50.942;4.028;2022-07-23T12:20:17;26.40;99.90
21244;DHT22;10780;50.942;4.028;2022-07-23T12:22:45;26.80;99.90
21244;DHT22;10780;50.942;4.028;2022-07-23T12:25:18;27.00;99.90
21244;DHT22;10780;50.942;4.028;2022-07-23T12:27:44;27.20;99.90
21244;DHT22;10780;50.942;4.028;2022-07-23T12:30:27;27.50;99.90
21244;DHT22;10780;50.942;4.028;2022-07-23T12:32:56;27.70;99.90
21244;DHT22;10780;50.942;4.028;2022-07-23T12:35:23;27.70;99.90
21244;DHT22;10780;50.942;4.028;2022-07-23T12:37:51;27.60;99.90
21244;DHT22;10780;50.942;4.028;2022-07-23T12:40:31;27.20;99.90
21244;DHT22;10780;50.942;4.028;2022-07-23T12:43:21;27.40;99.90
21244;DHT22;10780;50.942;4.028;2022-07-23T12:45:54;27.20;99.90
21244;DHT22;10780;50.942;4.028;2022-07-23T12:48:25;27.20;99.90
21244;DHT22;10780;50.942;4.028;2022-07-23T12:53:31;27.30;99.90
21244;DHT22;10780;50.942;4.028;2022-07-23T12:56:11;26.80;99.90
21244;DHT22;10780;50.942;4.028;2022-07-23T12:58:42;26.70;99.90
21244;DHT22;10780;50.942;4.028;2022-07-23T13:01:08;26.60;99.90
21244;DHT22;10780;50.942;4.028;2022-07-23T13:03:42;26.60;99.90
21244;DHT22;10780;50.942;4.028;2022-07-23T13:06:10;26.80;99.90
21244;DHT22;10780;50.942;4.028;2022-07-23T13:08:38;27.10;99.90
21244;DHT22;10780;50.942;4.028;2022-07-23T13:11:05;27.50;99.90
21244;DHT22;10780;50.942;4.028;2022-07-23T13:13:33;27.90;99.90
21244;DHT22;10780;50.942;4.028;2022-07-23T13:16:00;27.80;99.90
21244;DHT22;10780;50.942;4.028;2022-07-23T13:18:26;27.60;99.90
21244;DHT22;10780;50.942;4.028;2022-07-23T13:20:52;28.00;99.90
21244;DHT22;10780;50.942;4.028;2022-07-23T13:23:18;28.40;99.90
21244;DHT22;10780;50.942;4.028;2022-07-23T13:25:44;28.30;99.90
21244;DHT22;10780;50.942;4.028;2022-07-23T13:28:12;28.00;99.90
21244;DHT22;10780;50.942;4.028;2022-07-23T13:30:38;28.00;99.90
21244;DHT22;10780;50.942;4.028;2022-07-23T13:33:04;27.80;99.90
21244;DHT22;10780;50.942;4.028;2022-07-23T13:35:31;28.10;99.90
21244;DHT22;10780;50.942;4.028;2022-07-23T13:37:56;28.00;99.90
21244;DHT22;10780;50.942;4.028;2022-07-23T13:40:22;28.10;99.90
21244;DHT22;10780;50.942;4.028;2022-07-23T13:42:48;28.10;99.90
21244;DHT22;10780;50.942;4.028;2022-07-23T13:45:14;28.30;99.90
21244;DHT22;10780;50.942;4.028;2022-07-23T13:47:40;28.40;99.90
21244;DHT22;10780;50.942;4.028;2022-07-23T13:50:06;28.80;99.90
21244;DHT22;10780;50.942;4.028;2022-07-23T13:52:32;29.00;99.90
21244;DHT22;10780;50.942;4.028;2022-07-23T13:55:05;29.30;99.90
21244;DHT22;10780;50.942;4.028;2022-07-23T13:57:32;29.70;99.90
21244;DHT22;10780;50.942;4.028;2022-07-23T13:59:58;30.00;99.90
21244;DHT22;10780;50.942;4.028;2022-07-23T14:02:23;30.40;99.90
21244;DHT22;10780;50.942;4.028;2022-07-23T14:04:49;30.60;99.90
21244;DHT22;10780;50.942;4.028;2022-07-23T14:07:16;30.90;99.90
21244;DHT22;10780;50.942;4.028;2022-07-23T14:09:41;31.40;99.90
21244;DHT22;10780;50.942;4.028;2022-07-23T14:12:07;31.70;99.90
21244;DHT22;10780;50.942;4.028;2022-07-23T14:14:33;31.90;99.90
21244;DHT22;10780;50.942;4.028;2022-07-23T14:16:59;31.80;99.90
21244;DHT22;10780;50.942;4.028;2022-07-23T14:19:25;31.80;99.90
21244;DHT22;10780;50.942;4.028;2022-07-23T14:21:50;31.40;99.90
21244;DHT22;10780;50.942;4.028;2022-07-23T14:24:16;31.70;99.90
21244;DHT22;10780;50.942;4.028;2022-07-23T14:26:42;31.30;99.90
21244;DHT22;10780;50.942;4.028;2022-07-23T14:29:08;31.90;99.90
21244;DHT22;10780;50.942;4.028;2022-07-23T14:31:33;32.00;99.90
21244;DHT22;10780;50.942;4.028;2022-07-23T14:33:59;31.90;99.90
21244;DHT22;10780;50.942;4.028;2022-07-23T14:36:25;32.60;99.90
21244;DHT22;10780;50.942;4.028;2022-07-23T14:38:51;32.30;99.90
21244;DHT22;10780;50.942;4.028;2022-07-23T14:41:17;32.60;99.90
21244;DHT22;10780;50.942;4.028;2022-07-23T14:43:43;33.00;99.90
21244;DHT22;10780;50.942;4.028;2022-07-23T14:46:09;32.80;99.90
21244;DHT22;10780;50.942;4.028;2022-07-23T14:48:36;33.50;99.90
21244;DHT22;10780;50.942;4.028;2022-07-23T14:51:02;34.10;99.90
21244;DHT22;10780;50.942;4.028;2022-07-23T14:53:27;35.20;99.90
21244;DHT22;10780;50.942;4.028;2022-07-23T14:55:53;34.90;99.90
21244;DHT22;10780;50.942;4.028;2022-07-23T14:58:20;34.40;99.90
21244;DHT22;10780;50.942;4.028;2022-07-23T15:00:45;35.20;99.90
21244;DHT22;10780;50.942;4.028;2022-07-23T15:03:11;34.30;99.90
21244;DHT22;10780;50.942;4.028;2022-07-23T15:05:37;34.00;99.90
21244;DHT22;10780;50.942;4.028;2022-07-23T15:08:03;34.80;99.90
21244;DHT22;10780;50.942;4.028;2022-07-23T15:10:28;36.00;99.90
21244;DHT22;10780;50.942;4.028;2022-07-23T15:12:54;36.20;99.90
21244;DHT22;10780;50.942;4.028;2022-07-23T15:15:20;36.40;99.90
21244;DHT22;10780;50.942;4.028;2022-07-23T15:17:46;36.80;99.90
21244;DHT22;10780;50.942;4.028;2022-07-23T15:20:12;38.40;99.90
21244;DHT22;10780;50.942;4.028;2022-07-23T15:22:38;39.30;99.90
21244;DHT22;10780;50.942;4.028;2022-07-23T15:25:04;38.50;97.70
21244;DHT22;10780;50.942;4.028;2022-07-23T15:27:29;38.80;98.00
21244;DHT22;10780;50.942;4.028;2022-07-23T15:29:55;40.60;96.50
21244;DHT22;10780;50.942;4.028;2022-07-23T15:32:21;41.50;95.10
21244;DHT22;10780;50.942;4.028;2022-07-23T15:34:50;39.90;92.60
21244;DHT22;10780;50.942;4.028;2022-07-23T15:37:16;40.50;92.70
21244;DHT22;10780;50.942;4.028;2022-07-23T15:39:41;40.10;92.60
21244;DHT22;10780;50.942;4.028;2022-07-23T15:42:07;40.90;91.60
21244;DHT22;10780;50.942;4.028;2022-07-23T15:44:32;38.70;92.40
21244;DHT22;10780;50.942;4.028;2022-07-23T15:46:58;38.60;92.50
21244;DHT22;10780;50.942;4.028;2022-07-23T15:49:24;39.80;91.90
21244;DHT22;10780;50.942;4.028;2022-07-23T15:51:49;40.00;91.20
21244;DHT22;10780;50.942;4.028;2022-07-23T15:54:15;40.90;91.60
21244;DHT22;10780;50.942;4.028;2022-07-23T15:56:40;38.70;90.70
21244;DHT22;10780;50.942;4.028;2022-07-23T15:59:07;39.70;90.80
21244;DHT22;10780;50.942;4.028;2022-07-23T16:01:33;40.10;89.90
21244;DHT22;10780;50.942;4.028;2022-07-23T16:03:59;39.00;88.60
21244;DHT22;10780;50.942;4.028;2022-07-23T16:06:25;37.40;90.40
21244;DHT22;10780;50.942;4.028;2022-07-23T16:08:51;36.80;91.40
21244;DHT22;10780;50.942;4.028;2022-07-23T16:11:17;37.80;91.70
21244;DHT22;10780;50.942;4.028;2022-07-23T16:13:43;38.80;90.40
21244;DHT22;10780;50.942;4.028;2022-07-23T16:16:09;39.10;90.40
21244;DHT22;10780;50.942;4.028;2022-07-23T16:18:35;38.20;90.60
21244;DHT22;10780;50.942;4.028;2022-07-23T16:21:01;39.30;90.30